sensor_id;sensor_type;location;lat;lon;timestamp;pressure;altitude;pressure_sealevel;temperature
48854;BMP280;34673;52.808;17.856;2022-08-01T00:16:53;100114.97;;;15.45
48854;BMP280;34673;52.808;17.856;2022-08-01T00:19:20;100142.44;;;15.56
48854;BMP280;34673;52.808;17.856;2022-08-01T00:21:47;100123.50;;;15.50
48854;BMP280;34673;52.808;17.856;2022-08-01T00:24:28;100126.97;;;15.49
48854;BMP280;34673;52.808;17.856;2022-08-01T00:26:55;100126.09;;;15.50
48854;BMP280;34673;52.808;17.856;2022-08-01T00:29:22;100132.03;;;15.56
48854;BMP280;34673;52.808;17.856;2022-08-01T00:32:10;100131.25;;;15.52
48854;BMP280;34673;52.808;17.856;2022-08-01T00:34:38;100121.75;;;15.49
48854;BMP280;34673;52.808;17.856;2022-08-01T00:37:06;100120.06;;;15.48
48854;BMP280;34673;52.808;17.856;2022-08-01T00:39:34;100111.53;;;15.43
48854;BMP280;34673;52.808;17.856;2022-08-01T00:42:08;100116.75;;;15.43
48854;BMP280;34673;52.808;17.856;2022-08-01T00:44:37;100119.44;;;15.42
48854;BMP280;34673;52.808;17.856;2022-08-01T00:47:05;100118.56;;;15.41
48854;BMP280;34673;52.808;17.856;2022-08-01T00:49:33;100123.75;;;15.41
48854;BMP280;34673;52.808;17.856;2022-08-01T00:52:00;100110.03;;;15.36
48854;BMP280;34673;52.808;17.856;2022-08-01T00:54:29;100114.47;;;15.34
48854;BMP280;34673;52.808;17.856;2022-08-01T00:56:58;100110.13;;;15.33
48854;BMP280;34673;52.808;17.856;2022-08-01T00:59:26;100108.44;;;15.32
48854;BMP280;34673;52.808;17.856;2022-08-01T01:01:54;100117.16;;;15.31
48854;BMP280;34673;52.808;17.856;2022-08-01T01:04:22;100113.75;;;15.29
48854;BMP280;34673;52.808;17.856;2022-08-01T01:09:57;100113.63;;;15.32
48854;BMP280;34673;52.808;17.856;2022-08-01T01:15:09;100116.38;;;15.27
48854;BMP280;34673;52.808;17.856;2022-08-01T01:17:41;100110.41;;;15.24
48854;BMP280;34673;52.808;17.856;2022-08-01T01:20:20;100106.16;;;15.21
48854;BMP280;34673;52.808;17.856;2022-08-01T01:28:33;100107.19;;;15.16
48854;BMP280;34673;52.808;17.856;2022-08-01T01:31:03;100114.09;;;15.17
48854;BMP280;34673;52.808;17.856;2022-08-01T01:33:37;100109.69;;;15.20
48854;BMP280;34673;52.808;17.856;2022-08-01T01:36:14;100101.78;;;15.22
48854;BMP280;34673;52.808;17.856;2022-08-01T01:38:44;100100.91;;;15.23
48854;BMP280;34673;52.808;17.856;2022-08-01T01:41:14;100098.38;;;15.20
48854;BMP280;34673;52.808;17.856;2022-08-01T01:43:42;100108.16;;;15.13
48854;BMP280;34673;52.808;17.856;2022-08-01T01:46:12;100112.50;;;15.13
48854;BMP280;34673;52.808;17.856;2022-08-01T01:48:44;100107.41;;;15.10
48854;BMP280;34673;52.808;17.856;2022-08-01T01:51:12;100093.88;;;14.97
48854;BMP280;34673;52.808;17.856;2022-08-01T01:53:41;100112.97;;;14.97
48854;BMP280;34673;52.808;17.856;2022-08-01T01:56:08;100101.03;;;14.90
48854;BMP280;34673;52.808;17.856;2022-08-01T01:58:37;100096.78;;;14.88
48854;BMP280;34673;52.808;17.856;2022-08-01T02:01:06;100101.03;;;14.90
48854;BMP280;34673;52.808;17.856;2022-08-01T02:03:42;100100.97;;;14.92
48854;BMP280;34673;52.808;17.856;2022-08-01T02:06:13;100101.84;;;14.92
48854;BMP280;34673;52.808;17.856;2022-08-01T02:08:42;100095.84;;;14.90
48854;BMP280;34673;52.808;17.856;2022-08-01T02:11:10;100103.56;;;14.93
48854;BMP280;34673;52.808;17.856;2022-08-01T02:13:53;100101.66;;;14.98
48854;BMP280;34673;52.808;17.856;2022-08-01T02:16:24;100104.19;;;15.01
48854;BMP280;34673;52.808;17.856;2022-08-01T02:18:52;100095.53;;;14.99
48854;BMP280;34673;52.808;17.856;2022-08-01T02:21:32;100099.13;;;14.95
48854;BMP280;34673;52.808;17.856;2022-08-01T02:24:15;100096.63;;;14.92
48854;BMP280;34673;52.808;17.856;2022-08-01T02:26:47;100094.88;;;14.93
48854;BMP280;34673;52.808;17.856;2022-08-01T02:29:21;100091.50;;;14.89
48854;BMP280;34673;52.808;17.856;2022-08-01T02:31:53;100090.69;;;14.87
48854;BMP280;34673;52.808;17.856;2022-08-01T02:34:23;100090.63;;;14.90
48854;BMP280;34673;52.808;17.856;2022-08-01T02:36:55;100087.22;;;14.88
48854;BMP280;34673;52.808;17.856;2022-08-01T02:39:23;100090.69;;;14.87
48854;BMP280;34673;52.808;17.856;2022-08-01T02:41:57;100085.59;;;14.84
48854;BMP280;34673;52.808;17.856;2022-08-01T02:44:32;100077.16;;;14.76
48854;BMP280;34673;52.808;17.856;2022-08-01T02:47:02;100085.78;;;14.78
48854;BMP280;34673;52.808;17.856;2022-08-01T02:49:36;100089.09;;;14.83
48854;BMP280;34673;52.808;17.856;2022-08-01T02:52:08;100092.50;;;14.85
48854;BMP280;34673;52.808;17.856;2022-08-01T02:54:38;100084.72;;;14.83
48854;BMP280;34673;52.808;17.856;2022-08-01T02:57:08;100089.22;;;14.78
48854;BMP280;34673;52.808;17.856;2022-08-01T02:59:41;100082.34;;;14.76
48854;BMP280;34673;52.808;17.856;2022-08-01T03:02:10;100083.34;;;14.72
48854;BMP280;34673;52.808;17.856;2022-08-01T03:04:40;100086.06;;;14.69
48854;BMP280;34673;52.808;17.856;2022-08-01T03:07:09;100082.53;;;14.70
48854;BMP280;34673;52.808;17.856;2022-08-01T03:09:40;100084.25;;;14.71
48854;BMP280;34673;52.808;17.856;2022-08-01T03:12:13;100077.44;;;14.67
48854;BMP280;34673;52.808;17.856;2022-08-01T03:14:43;100090.31;;;14.71
48854;BMP280;34673;52.808;17.856;2022-08-01T03:17:14;100092.00;;;14.74
48854;BMP280;34673;52.808;17.856;2022-08-01T03:19:45;100089.31;;;14.75
48854;BMP280;34673;52.808;17.856;2022-08-01T03:22:13;100088.38;;;14.78
48854;BMP280;34673;52.808;17.856;2022-08-01T03:24:44;100084.84;;;14.80
48854;BMP280;34673;52.808;17.856;2022-08-01T03:27:19;100078.69;;;14.83
48854;BMP280;34673;52.808;17.856;2022-08-01T03:29:48;100081.91;;;14.91
48854;BMP280;34673;52.808;17.856;2022-08-01T03:32:18;100084.38;;;14.96
48854;BMP280;34673;52.808;17.856;2022-08-01T03:34:46;100079.91;;;14.99
48854;BMP280;34673;52.808;17.856;2022-08-01T03:37:25;100064.50;;;14.93
48854;BMP280;34673;52.808;17.856;2022-08-01T03:40:30;100085.13;;;14.99
48854;BMP280;34673;52.808;17.856;2022-08-01T03:43:05;100083.34;;;15.01
48854;BMP280;34673;52.808;17.856;2022-08-01T03:45:40;100077.84;;;15.11
48854;BMP280;34673;52.808;17.856;2022-08-01T03:48:16;100082.00;;;15.16
48854;BMP280;34673;52.808;17.856;2022-08-01T03:50:51;100081.75;;;15.24
48854;BMP280;34673;52.808;17.856;2022-08-01T03:53:24;100085.78;;;15.34
48854;BMP280;34673;52.808;17.856;2022-08-01T03:55:53;100080.25;;;15.43
48854;BMP280;34673;52.808;17.856;2022-08-01T03:58:23;100083.38;;;15.55
48854;BMP280;34673;52.808;17.856;2022-08-01T04:00:51;100084.66;;;15.68
48854;BMP280;34673;52.808;17.856;2022-08-01T04:03:19;100069.75;;;15.73
48854;BMP280;34673;52.808;17.856;2022-08-01T04:05:46;100075.22;;;15.90
48854;BMP280;34673;52.808;17.856;2022-08-01T04:08:14;100075.66;;;16.03
48854;BMP280;34673;52.808;17.856;2022-08-01T04:10:41;100080.59;;;16.12
48854;BMP280;34673;52.808;17.856;2022-08-01T04:13:08;100086.44;;;16.19
48854;BMP280;34673;52.808;17.856;2022-08-01T04:15:35;100075.00;;;16.23
48854;BMP280;34673;52.808;17.856;2022-08-01T04:18:02;100073.00;;;16.30
48854;BMP280;34673;52.808;17.856;2022-08-01T04:20:29;100078.81;;;16.36
48854;BMP280;34673;52.808;17.856;2022-08-01T04:22:57;100076.91;;;16.42
48854;BMP280;34673;52.808;17.856;2022-08-01T04:25:33;100078.50;;;16.46
48854;BMP280;34673;52.808;17.856;2022-08-01T04:28:03;100072.22;;;16.51
48854;BMP280;34673;52.808;17.856;2022-08-01T04:30:35;100078.91;;;16.58
48854;BMP280;34673;52.808;17.856;2022-08-01T04:33:04;100075.28;;;16.62
48854;BMP280;34673;52.808;17.856;2022-08-01T04:35:35;100075.16;;;16.66
48854;BMP280;34673;52.808;17.856;2022-08-01T04:38:26;100078.41;;;16.72
48854;BMP280;34673;52.808;17.856;2022-08-01T04:40:56;100075.66;;;16.75
48854;BMP280;34673;52.808;17.856;2022-08-01T04:43:36;100076.13;;;16.87
48854;BMP280;34673;52.808;17.856;2022-08-01T04:46:08;100075.00;;;16.94
48854;BMP280;34673;52.808;17.856;2022-08-01T04:48:37;100074.75;;;17.00
48854;BMP280;34673;52.808;17.856;2022-08-01T04:51:14;100067.72;;;17.02
48854;BMP280;34673;52.808;17.856;2022-08-01T04:53:45;100076.31;;;17.04
48854;BMP280;34673;52.808;17.856;2022-08-01T04:56:13;100072.81;;;17.05
48854;BMP280;34673;52.808;17.856;2022-08-01T04:58:42;100071.84;;;17.08
48854;BMP280;34673;52.808;17.856;2022-08-01T05:01:10;100071.09;;;17.04
48854;BMP280;34673;52.808;17.856;2022-08-01T05:03:38;100076.31;;;17.04
48854;BMP280;34673;52.808;17.856;2022-08-01T05:06:05;100072.13;;;17.00
48854;BMP280;34673;52.808;17.856;2022-08-01T05:08:32;100078.03;;;17.05
48854;BMP280;34673;52.808;17.856;2022-08-01T05:10:59;100081.53;;;17.04
48854;BMP280;34673;52.808;17.856;2022-08-01T05:13:28;100070.25;;;17.03
48854;BMP280;34673;52.808;17.856;2022-08-01T05:15:55;100078.75;;;17.09
48854;BMP280;34673;52.808;17.856;2022-08-01T05:18:22;100070.31;;;17.02
48854;BMP280;34673;52.808;17.856;2022-08-01T05:20:54;100065.88;;;17.04
48854;BMP280;34673;52.808;17.856;2022-08-01T05:23:21;100084.84;;;17.09
48854;BMP280;34673;52.808;17.856;2022-08-01T05:26:10;100083.13;;;17.08
48854;BMP280;34673;52.808;17.856;2022-08-01T05:28:40;100077.84;;;17.10
48854;BMP280;34673;52.808;17.856;2022-08-01T05:31:07;100077.91;;;17.08
48854;BMP280;34673;52.808;17.856;2022-08-01T05:33:35;100073.56;;;17.07
48854;BMP280;34673;52.808;17.856;2022-08-01T05:36:02;100069.28;;;17.06
48854;BMP280;34673;52.808;17.856;2022-08-01T05:38:29;100065.88;;;17.04
48854;BMP280;34673;52.808;17.856;2022-08-01T05:40:56;100064.91;;;17.06
48854;BMP280;34673;52.808;17.856;2022-08-01T05:43:23;100077.00;;;17.09
48854;BMP280;34673;52.808;17.856;2022-08-01T05:45:54;100067.34;;;17.11
48854;BMP280;34673;52.808;17.856;2022-08-01T05:48:21;100066.38;;;17.14
48854;BMP280;34673;52.808;17.856;2022-08-01T05:50:48;100061.84;;;17.17
48854;BMP280;34673;52.808;17.856;2022-08-01T05:53:20;100070.50;;;17.19
48854;BMP280;34673;52.808;17.856;2022-08-01T05:55:47;100065.13;;;17.22
48854;BMP280;34673;52.808;17.856;2022-08-01T05:58:15;100056.28;;;17.26
48854;BMP280;34673;52.808;17.856;2022-08-01T06:00:42;100068.28;;;17.31
48854;BMP280;34673;52.808;17.856;2022-08-01T06:03:09;100059.31;;;17.38
48854;BMP280;34673;52.808;17.856;2022-08-01T06:05:38;100065.97;;;17.45
48854;BMP280;34673;52.808;17.856;2022-08-01T06:08:05;100060.38;;;17.54
48854;BMP280;34673;52.808;17.856;2022-08-01T06:10:32;100061.78;;;17.61
48854;BMP280;34673;52.808;17.856;2022-08-01T06:12:59;100064.19;;;17.67
48854;BMP280;34673;52.808;17.856;2022-08-01T06:15:30;100062.31;;;17.69
48854;BMP280;34673;52.808;17.856;2022-08-01T06:17:58;100069.94;;;17.76
48854;BMP280;34673;52.808;17.856;2022-08-01T06:20:26;100065.53;;;17.76
48854;BMP280;34673;52.808;17.856;2022-08-01T06:22:53;100062.78;;;17.81
48854;BMP280;34673;52.808;17.856;2022-08-01T06:25:22;100059.09;;;17.85
48854;BMP280;34673;52.808;17.856;2022-08-01T06:27:49;100064.06;;;17.91
48854;BMP280;34673;52.808;17.856;2022-08-01T06:30:16;100064.66;;;17.98
48854;BMP280;34673;52.808;17.856;2022-08-01T06:32:43;100070.59;;;18.01
48854;BMP280;34673;52.808;17.856;2022-08-01T06:35:11;100061.84;;;18.02
48854;BMP280;34673;52.808;17.856;2022-08-01T06:37:38;100060.00;;;18.04
48854;BMP280;34673;52.808;17.856;2022-08-01T06:40:07;100058.13;;;18.08
48854;BMP280;34673;52.808;17.856;2022-08-01T06:42:40;100062.47;;;18.07
48854;BMP280;34673;52.808;17.856;2022-08-01T06:45:10;100064.84;;;18.13
48854;BMP280;34673;52.808;17.856;2022-08-01T06:47:38;100054.25;;;18.16
48854;BMP280;34673;52.808;17.856;2022-08-01T06:50:08;100064.44;;;18.23
48854;BMP280;34673;52.808;17.856;2022-08-01T06:52:36;100062.75;;;18.22
48854;BMP280;34673;52.808;17.856;2022-08-01T06:55:04;100066.25;;;18.21
48854;BMP280;34673;52.808;17.856;2022-08-01T06:57:31;100059.97;;;18.25
48854;BMP280;34673;52.808;17.856;2022-08-01T07:00:05;100076.19;;;18.33
48854;BMP280;34673;52.808;17.856;2022-08-01T07:02:37;100076.06;;;18.36
48854;BMP280;34673;52.808;17.856;2022-08-01T07:05:05;100072.50;;;18.37
48854;BMP280;34673;52.808;17.856;2022-08-01T07:07:32;100079.38;;;18.39
48854;BMP280;34673;52.808;17.856;2022-08-01T07:09:59;100081.03;;;18.42
48854;BMP280;34673;52.808;17.856;2022-08-01T07:12:26;100080.88;;;18.45
48854;BMP280;34673;52.808;17.856;2022-08-01T07:14:53;100075.50;;;18.48
48854;BMP280;34673;52.808;17.856;2022-08-01T07:17:20;100079.75;;;18.51
48854;BMP280;34673;52.808;17.856;2022-08-01T07:19:48;100068.28;;;18.53
48854;BMP280;34673;52.808;17.856;2022-08-01T07:22:15;100070.00;;;18.54
48854;BMP280;34673;52.808;17.856;2022-08-01T07:24:49;100068.94;;;18.58
48854;BMP280;34673;52.808;17.856;2022-08-01T07:27:20;100074.94;;;18.60
48854;BMP280;34673;52.808;17.856;2022-08-01T07:29:51;100060.38;;;18.55
48854;BMP280;34673;52.808;17.856;2022-08-01T07:32:19;100068.03;;;18.59
48854;BMP280;34673;52.808;17.856;2022-08-01T07:34:46;100069.72;;;18.60
48854;BMP280;34673;52.808;17.856;2022-08-01T07:37:13;100067.88;;;18.63
48854;BMP280;34673;52.808;17.856;2022-08-01T07:39:40;100068.88;;;18.60
48854;BMP280;34673;52.808;17.856;2022-08-01T07:42:08;100062.63;;;18.63
48854;BMP280;34673;52.808;17.856;2022-08-01T07:44:36;100066.94;;;18.64
48854;BMP280;34673;52.808;17.856;2022-08-01T07:47:04;100057.53;;;18.59
48854;BMP280;34673;52.808;17.856;2022-08-01T07:49:31;100055.69;;;18.61
48854;BMP280;34673;52.808;17.856;2022-08-01T07:52:05;100055.53;;;18.65
48854;BMP280;34673;52.808;17.856;2022-08-01T07:54:32;100071.00;;;18.71
48854;BMP280;34673;52.808;17.856;2022-08-01T07:57:01;100065.59;;;18.74
48854;BMP280;34673;52.808;17.856;2022-08-01T07:59:29;100076.97;;;18.74
48854;BMP280;34673;52.808;17.856;2022-08-01T08:01:56;100088.03;;;18.81
48854;BMP280;34673;52.808;17.856;2022-08-01T08:04:24;100074.16;;;18.79
48854;BMP280;34673;52.808;17.856;2022-08-01T08:06:51;100080.94;;;18.83
48854;BMP280;34673;52.808;17.856;2022-08-01T08:09:20;100082.34;;;18.90
48854;BMP280;34673;52.808;17.856;2022-08-01T08:11:48;100082.19;;;18.93
48854;BMP280;34673;52.808;17.856;2022-08-01T08:14:16;100060.09;;;18.80
48854;BMP280;34673;52.808;17.856;2022-08-01T08:16:43;100087.16;;;18.99
48854;BMP280;34673;52.808;17.856;2022-08-01T08:19:11;100089.41;;;19.07
48854;BMP280;34673;52.808;17.856;2022-08-01T08:21:39;100090.09;;;19.11
48854;BMP280;34673;52.808;17.856;2022-08-01T08:24:07;100098.44;;;19.19
48854;BMP280;34673;52.808;17.856;2022-08-01T08:26:55;100077.47;;;19.19
48854;BMP280;34673;52.808;17.856;2022-08-01T08:29:23;100090.22;;;19.26
48854;BMP280;34673;52.808;17.856;2022-08-01T08:31:55;100093.94;;;19.40
48854;BMP280;34673;52.808;17.856;2022-08-01T08:34:23;100088.34;;;19.47
48854;BMP280;34673;52.808;17.856;2022-08-01T08:36:51;100088.19;;;19.51
48854;BMP280;34673;52.808;17.856;2022-08-01T08:39:19;100088.44;;;19.63
48854;BMP280;34673;52.808;17.856;2022-08-01T08:41:47;100097.97;;;19.66
48854;BMP280;34673;52.808;17.856;2022-08-01T08:44:16;100099.50;;;19.70
48854;BMP280;34673;52.808;17.856;2022-08-01T08:46:47;100097.81;;;19.69
48854;BMP280;34673;52.808;17.856;2022-08-01T08:49:20;100092.41;;;19.72
48854;BMP280;34673;52.808;17.856;2022-08-01T08:51:51;100104.13;;;19.82
48854;BMP280;34673;52.808;17.856;2022-08-01T08:54:21;100060.47;;;19.62
48854;BMP280;34673;52.808;17.856;2022-08-01T08:56:59;100097.88;;;19.85
48854;BMP280;34673;52.808;17.856;2022-08-01T08:59:26;100074.13;;;19.70
48854;BMP280;34673;52.808;17.856;2022-08-01T09:01:56;100107.22;;;19.90
48854;BMP280;34673;52.808;17.856;2022-08-01T09:04:25;100095.16;;;19.86
48854;BMP280;34673;52.808;17.856;2022-08-01T09:06:53;100107.06;;;19.93
48854;BMP280;34673;52.808;17.856;2022-08-01T09:09:22;100112.47;;;19.90
48854;BMP280;34673;52.808;17.856;2022-08-01T09:11:49;100119.41;;;19.91
48854;BMP280;34673;52.808;17.856;2022-08-01T09:14:32;100119.41;;;19.91
48854;BMP280;34673;52.808;17.856;2022-08-01T09:17:05;100108.91;;;19.91
48854;BMP280;34673;52.808;17.856;2022-08-01T09:19:48;100101.97;;;19.90
48854;BMP280;34673;52.808;17.856;2022-08-01T09:22:19;100114.25;;;20.07
48854;BMP280;34673;52.808;17.856;2022-08-01T09:25:05;100114.78;;;20.14
48854;BMP280;34673;52.808;17.856;2022-08-01T09:27:34;100077.81;;;20.01
48854;BMP280;34673;52.808;17.856;2022-08-01T09:32:59;100114.75;;;20.31
48854;BMP280;34673;52.808;17.856;2022-08-01T09:35:37;100105.19;;;20.30
48854;BMP280;34673;52.808;17.856;2022-08-01T09:38:20;100106.38;;;20.41
48854;BMP280;34673;52.808;17.856;2022-08-01T09:43:17;100102.91;;;20.57
48854;BMP280;34673;52.808;17.856;2022-08-01T09:45:44;100106.13;;;20.78
48854;BMP280;34673;52.808;17.856;2022-08-01T09:48:16;100097.75;;;20.88
48854;BMP280;34673;52.808;17.856;2022-08-01T09:50:46;100107.41;;;21.03
48854;BMP280;34673;52.808;17.856;2022-08-01T09:53:15;100101.06;;;21.23
48854;BMP280;34673;52.808;17.856;2022-08-01T09:56:08;100107.44;;;21.65
48854;BMP280;34673;52.808;17.856;2022-08-01T09:58:56;100103.25;;;22.07
48854;BMP280;34673;52.808;17.856;2022-08-01T10:01:28;100099.88;;;22.33
48854;BMP280;34673;52.808;17.856;2022-08-01T10:04:21;100101.69;;;22.47
48854;BMP280;34673;52.808;17.856;2022-08-01T10:07:03;100085.69;;;22.50
48854;BMP280;34673;52.808;17.856;2022-08-01T10:09:34;100096.97;;;22.67
48854;BMP280;34673;52.808;17.856;2022-08-01T10:12:08;100095.56;;;22.75
48854;BMP280;34673;52.808;17.856;2022-08-01T10:14:42;100096.00;;;22.82
48854;BMP280;34673;52.808;17.856;2022-08-01T10:17:14;100080.94;;;22.84
48854;BMP280;34673;52.808;17.856;2022-08-01T10:19:46;100091.84;;;22.92
48854;BMP280;34673;52.808;17.856;2022-08-01T10:22:18;100079.44;;;22.80
48854;BMP280;34673;52.808;17.856;2022-08-01T10:24:47;100084.16;;;22.75
48854;BMP280;34673;52.808;17.856;2022-08-01T10:27:16;100082.44;;;22.74
48854;BMP280;34673;52.808;17.856;2022-08-01T10:30:03;100087.91;;;22.71
48854;BMP280;34673;52.808;17.856;2022-08-01T10:32:47;100082.44;;;22.74
48854;BMP280;34673;52.808;17.856;2022-08-01T10:35:17;100089.25;;;22.78
48854;BMP280;34673;52.808;17.856;2022-08-01T10:38:05;100081.69;;;22.86
48854;BMP280;34673;52.808;17.856;2022-08-01T10:40:40;100078.56;;;22.94
48854;BMP280;34673;52.808;17.856;2022-08-01T10:43:14;100073.56;;;23.04
48854;BMP280;34673;52.808;17.856;2022-08-01T10:45:49;100082.53;;;23.28
48854;BMP280;34673;52.808;17.856;2022-08-01T10:51:05;100076.06;;;23.86
48854;BMP280;34673;52.808;17.856;2022-08-01T10:53:53;100063.69;;;24.13
48854;BMP280;34673;52.808;17.856;2022-08-01T10:56:23;100061.13;;;24.37
48854;BMP280;34673;52.808;17.856;2022-08-01T10:59:03;100061.34;;;24.59
48854;BMP280;34673;52.808;17.856;2022-08-01T11:01:37;100051.19;;;24.53
48854;BMP280;34673;52.808;17.856;2022-08-01T11:04:14;100058.19;;;24.54
48854;BMP280;34673;52.808;17.856;2022-08-01T11:06:54;100049.28;;;24.55
48854;BMP280;34673;52.808;17.856;2022-08-01T11:09:42;100064.91;;;24.71
48854;BMP280;34673;52.808;17.856;2022-08-01T11:12:18;100056.19;;;24.82
48854;BMP280;34673;52.808;17.856;2022-08-01T11:17:58;100056.09;;;25.07
48854;BMP280;34673;52.808;17.856;2022-08-01T11:20:36;100064.75;;;25.46
48854;BMP280;34673;52.808;17.856;2022-08-01T11:28:27;100061.38;;;25.55
48854;BMP280;34673;52.808;17.856;2022-08-01T11:38:46;100061.16;;;25.10
48854;BMP280;34673;52.808;17.856;2022-08-01T11:41:29;100067.72;;;25.17
48854;BMP280;34673;52.808;17.856;2022-08-01T11:46:57;100053.69;;;25.63
48854;BMP280;34673;52.808;17.856;2022-08-01T11:52:25;100055.75;;;26.06
48854;BMP280;34673;52.808;17.856;2022-08-01T11:55:05;100051.66;;;26.25
48854;BMP280;34673;52.808;17.856;2022-08-01T11:57:36;100059.59;;;26.47
48854;BMP280;34673;52.808;17.856;2022-08-01T12:00:14;100028.03;;;26.44
48854;BMP280;34673;52.808;17.856;2022-08-01T12:02:45;100055.25;;;26.80
48854;BMP280;34673;52.808;17.856;2022-08-01T12:05:15;100053.28;;;26.93
48854;BMP280;34673;52.808;17.856;2022-08-01T12:07:49;100055.41;;;27.11
48854;BMP280;34673;52.808;17.856;2022-08-01T12:10:19;100057.56;;;27.17
48854;BMP280;34673;52.808;17.856;2022-08-01T12:12:49;100052.75;;;27.11
48854;BMP280;34673;52.808;17.856;2022-08-01T12:15:18;100056.91;;;27.04
48854;BMP280;34673;52.808;17.856;2022-08-01T12:17:50;100053.72;;;27.21
48854;BMP280;34673;52.808;17.856;2022-08-01T12:20:30;100061.38;;;27.35
48854;BMP280;34673;52.808;17.856;2022-08-01T12:23:00;100060.88;;;27.42
48854;BMP280;34673;52.808;17.856;2022-08-01T12:25:29;100062.81;;;27.39
48854;BMP280;34673;52.808;17.856;2022-08-01T12:28:03;100063.81;;;27.27
48854;BMP280;34673;52.808;17.856;2022-08-01T12:30:33;100051.31;;;27.07
48854;BMP280;34673;52.808;17.856;2022-08-01T12:33:04;100051.81;;;27.01
48854;BMP280;34673;52.808;17.856;2022-08-01T12:35:34;100054.25;;;26.92
48854;BMP280;34673;52.808;17.856;2022-08-01T12:38:07;100056.00;;;26.71
48854;BMP280;34673;52.808;17.856;2022-08-01T12:40:42;100058.66;;;26.60
48854;BMP280;34673;52.808;17.856;2022-08-01T12:43:16;100056.00;;;26.60
48854;BMP280;34673;52.808;17.856;2022-08-01T12:45:54;100041.56;;;26.52
48854;BMP280;34673;52.808;17.856;2022-08-01T12:48:24;100063.50;;;26.66
48854;BMP280;34673;52.808;17.856;2022-08-01T12:50:53;100060.09;;;26.64
48854;BMP280;34673;52.808;17.856;2022-08-01T12:53:24;100053.13;;;26.63
48854;BMP280;34673;52.808;17.856;2022-08-01T12:56:07;100044.94;;;26.55
48854;BMP280;34673;52.808;17.856;2022-08-01T12:58:35;100056.22;;;26.45
48854;BMP280;34673;52.808;17.856;2022-08-01T13:01:06;100051.16;;;26.42
48854;BMP280;34673;52.808;17.856;2022-08-01T13:03:35;100057.69;;;26.49
48854;BMP280;34673;52.808;17.856;2022-08-01T13:06:14;100048.03;;;26.37
48854;BMP280;34673;52.808;17.856;2022-08-01T13:08:45;100045.63;;;26.23
48854;BMP280;34673;52.808;17.856;2022-08-01T13:11:14;100022.72;;;25.99
48854;BMP280;34673;52.808;17.856;2022-08-01T13:13:46;100057.66;;;26.04
48854;BMP280;34673;52.808;17.856;2022-08-01T13:16:19;100057.75;;;25.92
48854;BMP280;34673;52.808;17.856;2022-08-01T13:19:06;100062.91;;;25.82
48854;BMP280;34673;52.808;17.856;2022-08-01T13:21:34;100061.69;;;25.75
48854;BMP280;34673;52.808;17.856;2022-08-01T13:27:00;100051.16;;;25.62
48854;BMP280;34673;52.808;17.856;2022-08-01T13:29:37;100041.28;;;25.53
48854;BMP280;34673;52.808;17.856;2022-08-01T13:32:18;100059.72;;;25.54
48854;BMP280;34673;52.808;17.856;2022-08-01T13:35:07;100060.78;;;25.52
48854;BMP280;34673;52.808;17.856;2022-08-01T13:37:40;100049.31;;;25.51
48854;BMP280;34673;52.808;17.856;2022-08-01T13:40:09;100054.63;;;25.51
48854;BMP280;34673;52.808;17.856;2022-08-01T13:42:38;100056.56;;;25.49
48854;BMP280;34673;52.808;17.856;2022-08-01T13:45:07;100060.38;;;25.45
48854;BMP280;34673;52.808;17.856;2022-08-01T13:47:43;100058.94;;;25.41
48854;BMP280;34673;52.808;17.856;2022-08-01T13:50:31;100063.59;;;25.37
48854;BMP280;34673;52.808;17.856;2022-08-01T13:52:59;100072.50;;;25.36
48854;BMP280;34673;52.808;17.856;2022-08-01T13:55:27;100059.84;;;25.29
48854;BMP280;34673;52.808;17.856;2022-08-01T13:58:02;100056.25;;;25.30
48854;BMP280;34673;52.808;17.856;2022-08-01T14:00:29;100064.06;;;25.31
48854;BMP280;34673;52.808;17.856;2022-08-01T14:02:57;100073.59;;;25.34
48854;BMP280;34673;52.808;17.856;2022-08-01T14:05:25;100067.03;;;25.27
48854;BMP280;34673;52.808;17.856;2022-08-01T14:07:52;100078.84;;;25.23
48854;BMP280;34673;52.808;17.856;2022-08-01T14:10:23;100066.69;;;25.07
48854;BMP280;34673;52.808;17.856;2022-08-01T14:12:51;100074.75;;;25.06
48854;BMP280;34673;52.808;17.856;2022-08-01T14:15:22;100086.63;;;25.00
48854;BMP280;34673;52.808;17.856;2022-08-01T14:18:06;100083.69;;;24.92
48854;BMP280;34673;52.808;17.856;2022-08-01T14:20:36;100081.59;;;24.84
48854;BMP280;34673;52.808;17.856;2022-08-01T14:23:03;100088.41;;;24.75
48854;BMP280;34673;52.808;17.856;2022-08-01T14:25:39;100086.91;;;24.71
48854;BMP280;34673;52.808;17.856;2022-08-01T14:28:26;100095.59;;;24.73
48854;BMP280;34673;52.808;17.856;2022-08-01T14:30:56;100087.66;;;24.73
48854;BMP280;34673;52.808;17.856;2022-08-01T14:33:24;100093.03;;;24.72
48854;BMP280;34673;52.808;17.856;2022-08-01T14:35:52;100099.84;;;24.63
48854;BMP280;34673;52.808;17.856;2022-08-01T14:38:39;100093.50;;;24.53
48854;BMP280;34673;52.808;17.856;2022-08-01T14:41:07;100107.88;;;24.62
48854;BMP280;34673;52.808;17.856;2022-08-01T14:43:34;100110.41;;;24.63
48854;BMP280;34673;52.808;17.856;2022-08-01T14:46:01;100105.88;;;24.65
48854;BMP280;34673;52.808;17.856;2022-08-01T14:48:30;100108.28;;;24.68
48854;BMP280;34673;52.808;17.856;2022-08-01T14:50:58;100101.31;;;24.67
48854;BMP280;34673;52.808;17.856;2022-08-01T14:53:30;100102.56;;;24.74
48854;BMP280;34673;52.808;17.856;2022-08-01T14:56:03;100103.53;;;24.73
48854;BMP280;34673;52.808;17.856;2022-08-01T14:58:30;100100.66;;;24.76
48854;BMP280;34673;52.808;17.856;2022-08-01T15:00:58;100109.13;;;24.82
48854;BMP280;34673;52.808;17.856;2022-08-01T15:03:25;100100.22;;;24.83
48854;BMP280;34673;52.808;17.856;2022-08-01T15:05:52;100101.50;;;24.77
48854;BMP280;34673;52.808;17.856;2022-08-01T15:08:19;100098.97;;;24.75